sensor_id;sensor_type;location;lat;lon;timestamp;pressure;altitude;pressure_sealevel;temperature;humidity
36192;BME280;22233;42.708;23.360;2023-04-16T00:02:00;94883.28;;;14.83;53.58
36192;BME280;22233;42.708;23.360;2023-04-16T00:04:25;94893.09;;;14.84;53.62
36192;BME280;22233;42.708;23.360;2023-04-16T00:06:51;94902.41;;;14.83;53.09
36192;BME280;22233;42.708;23.360;2023-04-16T00:09:16;94878.19;;;14.65;53.27
36192;BME280;22233;42.708;23.360;2023-04-16T00:11:41;94887.16;;;14.66;53.42
36192;BME280;22233;42.708;23.360;2023-04-16T00:14:07;94881.88;;;14.73;52.89
36192;BME280;22233;42.708;23.360;2023-04-16T00:16:32;94874.28;;;14.66;52.66
36192;BME280;22233;42.708;23.360;2023-04-16T00:18:58;94887.50;;;14.64;53.19
36192;BME280;22233;42.708;23.360;2023-04-16T00:21:23;94888.94;;;14.74;53.39
36192;BME280;22233;42.708;23.360;2023-04-16T00:23:48;94880.91;;;14.65;53.26
36192;BME280;22233;42.708;23.360;2023-04-16T00:26:14;94898.97;;;14.70;53.07
36192;BME280;22233;42.708;23.360;2023-04-16T00:28:40;94892.38;;;14.43;54.38
36192;BME280;22233;42.708;23.360;2023-04-16T00:31:05;94885.09;;;14.47;54.41
36192;BME280;22233;42.708;23.360;2023-04-16T00:33:31;94889.06;;;14.49;54.16
36192;BME280;22233;42.708;23.360;2023-04-16T00:35:56;94892.22;;;14.51;54.23
36192;BME280;22233;42.708;23.360;2023-04-16T00:38:22;94898.75;;;14.47;54.66
36192;BME280;22233;42.708;23.360;2023-04-16T00:40:47;94894.16;;;14.35;55.07
36192;BME280;22233;42.708;23.360;2023-04-16T00:43:20;94887.88;;;14.06;56.02
36192;BME280;22233;42.708;23.360;2023-04-16T00:45:47;94874.38;;;13.97;55.96
36192;BME280;22233;42.708;23.360;2023-04-16T00:48:12;94893.94;;;13.99;56.03
36192;BME280;22233;42.708;23.360;2023-04-16T00:50:38;94875.09;;;13.66;56.78
36192;BME280;22233;42.708;23.360;2023-04-16T00:53:04;94881.38;;;12.81;59.27
36192;BME280;22233;42.708;23.360;2023-04-16T00:55:29;94893.59;;;11.83;59.73
36192;BME280;22233;42.708;23.360;2023-04-16T00:57:55;94892.13;;;11.44;58.22
36192;BME280;22233;42.708;23.360;2023-04-16T01:00:21;94883.91;;;11.02;58.15
36192;BME280;22233;42.708;23.360;2023-04-16T01:02:46;94880.25;;;11.27;56.74
36192;BME280;22233;42.708;23.360;2023-04-16T01:05:12;94885.75;;;11.60;56.44
36192;BME280;22233;42.708;23.360;2023-04-16T01:07:37;94892.19;;;11.56;55.53
36192;BME280;22233;42.708;23.360;2023-04-16T01:10:03;94881.28;;;11.77;55.21
36192;BME280;22233;42.708;23.360;2023-04-16T01:12:28;94878.59;;;11.98;54.07
36192;BME280;22233;42.708;23.360;2023-04-16T01:14:55;94894.78;;;11.94;53.04
36192;BME280;22233;42.708;23.360;2023-04-16T01:17:20;94878.59;;;11.98;53.44
36192;BME280;22233;42.708;23.360;2023-04-16T01:19:45;94879.13;;;12.25;52.86
36192;BME280;22233;42.708;23.360;2023-04-16T01:22:11;94883.03;;;12.36;51.86
36192;BME280;22233;42.708;23.360;2023-04-16T01:24:36;94889.28;;;12.49;51.90
36192;BME280;22233;42.708;23.360;2023-04-16T01:27:02;94871.34;;;12.48;51.76
36192;BME280;22233;42.708;23.360;2023-04-16T01:29:27;94872.94;;;12.49;50.50
36192;BME280;22233;42.708;23.360;2023-04-16T01:31:53;94870.31;;;12.40;50.90
36192;BME280;22233;42.708;23.360;2023-04-16T01:34:18;94875.44;;;12.42;52.24
36192;BME280;22233;42.708;23.360;2023-04-16T01:36:44;94874.75;;;12.45;50.93
36192;BME280;22233;42.708;23.360;2023-04-16T01:39:09;94877.00;;;12.30;51.08
36192;BME280;22233;42.708;23.360;2023-04-16T01:41:40;94866.00;;;12.39;50.52
36192;BME280;22233;42.708;23.360;2023-04-16T01:44:05;94876.72;;;12.69;50.27
36192;BME280;22233;42.708;23.360;2023-04-16T01:46:32;94872.16;;;12.61;51.85
36192;BME280;22233;42.708;23.360;2023-04-16T01:48:57;94863.31;;;12.64;51.67
36192;BME280;22233;42.708;23.360;2023-04-16T01:51:23;94872.88;;;12.70;51.84
36192;BME280;22233;42.708;23.360;2023-04-16T01:53:49;94869.69;;;12.68;51.68
36192;BME280;22233;42.708;23.360;2023-04-16T01:56:15;94864.31;;;12.59;52.98
36192;BME280;22233;42.708;23.360;2023-04-16T01:58:40;94870.94;;;12.70;52.72
36192;BME280;22233;42.708;23.360;2023-04-16T02:01:07;94867.75;;;12.68;52.02
36192;BME280;22233;42.708;23.360;2023-04-16T02:03:33;94862.97;;;12.65;52.62
36192;BME280;22233;42.708;23.360;2023-04-16T02:05:58;94844.34;;;12.55;52.75
36192;BME280;22233;42.708;23.360;2023-04-16T02:08:25;94869.91;;;12.63;53.22
36192;BME280;22233;42.708;23.360;2023-04-16T02:10:50;94861.84;;;12.66;52.75
36192;BME280;22233;42.708;23.360;2023-04-16T02:13:16;94858.78;;;12.68;52.61
36192;BME280;22233;42.708;23.360;2023-04-16T02:15:49;94852.44;;;12.76;51.96
36192;BME280;22233;42.708;23.360;2023-04-16T02:18:15;94848.59;;;12.31;51.65
36192;BME280;22233;42.708;23.360;2023-04-16T02:20:45;94859.66;;;12.47;52.93
36192;BME280;22233;42.708;23.360;2023-04-16T02:23:11;94849.34;;;12.53;51.54
36192;BME280;22233;42.708;23.360;2023-04-16T02:25:43;94858.75;;;12.55;51.66
36192;BME280;22233;42.708;23.360;2023-04-16T02:28:11;94855.34;;;12.58;51.75
36192;BME280;22233;42.708;23.360;2023-04-16T02:30:37;94860.38;;;12.69;52.51
36192;BME280;22233;42.708;23.360;2023-04-16T02:33:04;94863.78;;;12.66;51.70
36192;BME280;22233;42.708;23.360;2023-04-16T02:35:34;94867.50;;;12.73;51.90
36192;BME280;22233;42.708;23.360;2023-04-16T02:38:01;94850.25;;;12.69;52.02
36192;BME280;22233;42.708;23.360;2023-04-16T02:40:27;94842.97;;;12.73;51.60
36192;BME280;22233;42.708;23.360;2023-04-16T02:42:53;94853.09;;;12.73;51.57
36192;BME280;22233;42.708;23.360;2023-04-16T02:45:19;94859.69;;;12.72;52.39
36192;BME280;22233;42.708;23.360;2023-04-16T02:47:45;94846.03;;;12.59;52.48
36192;BME280;22233;42.708;23.360;2023-04-16T02:50:10;94845.69;;;12.61;52.93
36192;BME280;22233;42.708;23.360;2023-04-16T02:52:35;94838.16;;;12.33;53.43
36192;BME280;22233;42.708;23.360;2023-04-16T02:55:01;94845.94;;;12.44;54.04
36192;BME280;22233;42.708;23.360;2023-04-16T02:57:27;94825.28;;;11.97;54.82
36192;BME280;22233;42.708;23.360;2023-04-16T02:59:52;94841.91;;;12.29;54.99
36192;BME280;22233;42.708;23.360;2023-04-16T03:02:18;94844.75;;;12.32;54.01
36192;BME280;22233;42.708;23.360;2023-04-16T03:04:43;94835.69;;;12.28;53.47
36192;BME280;22233;42.708;23.360;2023-04-16T03:07:08;94832.03;;;12.24;52.72
36192;BME280;22233;42.708;23.360;2023-04-16T03:09:35;94833.81;;;12.08;53.00
36192;BME280;22233;42.708;23.360;2023-04-16T03:12:00;94848.47;;;12.15;52.98
36192;BME280;22233;42.708;23.360;2023-04-16T03:14:27;94845.84;;;12.19;53.11
36192;BME280;22233;42.708;23.360;2023-04-16T03:16:52;94848.38;;;12.24;52.31
36192;BME280;22233;42.708;23.360;2023-04-16T03:19:18;94859.88;;;12.30;52.57
36192;BME280;22233;42.708;23.360;2023-04-16T03:21:43;94853.31;;;11.97;53.25
36192;BME280;22233;42.708;23.360;2023-04-16T03:24:09;94846.47;;;11.91;52.79
36192;BME280;22233;42.708;23.360;2023-04-16T03:26:34;94862.94;;;11.74;52.52
36192;BME280;22233;42.708;23.360;2023-04-16T03:29:00;94852.56;;;11.88;51.71
36192;BME280;22233;42.708;23.360;2023-04-16T03:31:26;94847.81;;;11.64;53.03
36192;BME280;22233;42.708;23.360;2023-04-16T03:33:51;94860.75;;;11.67;52.29
36192;BME280;22233;42.708;23.360;2023-04-16T03:36:17;94855.22;;;11.55;52.12
36192;BME280;22233;42.708;23.360;2023-04-16T03:38:42;94855.38;;;11.37;52.54
36192;BME280;22233;42.708;23.360;2023-04-16T03:41:08;94862.63;;;11.33;53.10
36192;BME280;22233;42.708;23.360;2023-04-16T03:43:33;94867.38;;;11.36;52.63
36192;BME280;22233;42.708;23.360;2023-04-16T03:45:58;94862.56;;;11.12;52.19
36192;BME280;22233;42.708;23.360;2023-04-16T03:48:24;94871.94;;;10.64;54.28
36192;BME280;22233;42.708;23.360;2023-04-16T03:50:49;94859.72;;;10.49;53.62
36192;BME280;22233;42.708;23.360;2023-04-16T03:53:15;94849.41;;;10.16;54.93
36192;BME280;22233;42.708;23.360;2023-04-16T03:55:41;94865.97;;;10.24;55.13
36192;BME280;22233;42.708;23.360;2023-04-16T03:58:07;94852.19;;;9.90;55.21
36192;BME280;22233;42.708;23.360;2023-04-16T04:00:32;94858.84;;;10.10;55.00
36192;BME280;22233;42.708;23.360;2023-04-16T04:02:58;94871.56;;;10.45;55.08
36192;BME280;22233;42.708;23.360;2023-04-16T04:05:23;94863.41;;;10.45;54.17
36192;BME280;22233;42.708;23.360;2023-04-16T04:07:49;94881.19;;;10.72;54.26
36192;BME280;22233;42.708;23.360;2023-04-16T04:10:14;94880.16;;;10.85;53.54
36192;BME280;22233;42.708;23.360;2023-04-16T04:12:41;94881.16;;;10.81;53.51
36192;BME280;22233;42.708;23.360;2023-04-16T04:15:07;94892.56;;;10.65;54.65
36192;BME280;22233;42.708;23.360;2023-04-16T04:17:32;94887.50;;;10.46;54.92
36192;BME280;22233;42.708;23.360;2023-04-16T04:19:58;94877.63;;;10.42;54.18
36192;BME280;22233;42.708;23.360;2023-04-16T04:22:23;94886.81;;;10.58;53.34
36192;BME280;22233;42.708;23.360;2023-04-16T04:24:49;94881.88;;;10.90;53.20
36192;BME280;22233;42.708;23.360;2023-04-16T04:27:14;94899.75;;;10.99;53.05
36192;BME280;22233;42.708;23.360;2023-04-16T04:29:39;94890.44;;;11.09;52.99
36192;BME280;22233;42.708;23.360;2023-04-16T04:32:05;94882.34;;;11.22;52.62
36192;BME280;22233;42.708;23.360;2023-04-16T04:34:30;94900.84;;;11.28;52.66
36192;BME280;22233;42.708;23.360;2023-04-16T04:36:56;94882.56;;;11.37;52.31
36192;BME280;22233;42.708;23.360;2023-04-16T04:39:21;94896.56;;;11.48;51.95
36192;BME280;22233;42.708;23.360;2023-04-16T04:41:47;94906.50;;;11.44;52.27
36192;BME280;22233;42.708;23.360;2023-04-16T04:44:12;94895.63;;;11.44;52.89
36192;BME280;22233;42.708;23.360;2023-04-16T04:46:39;94910.22;;;11.60;52.45
36192;BME280;22233;42.708;23.360;2023-04-16T04:49:04;94908.19;;;11.57;51.79
36192;BME280;22233;42.708;23.360;2023-04-16T04:51:31;94897.63;;;11.56;52.11
36192;BME280;22233;42.708;23.360;2023-04-16T04:53:56;94910.84;;;11.66;52.42
36192;BME280;22233;42.708;23.360;2023-04-16T04:56:22;94912.09;;;11.69;52.90
36192;BME280;22233;42.708;23.360;2023-04-16T04:58:49;94897.78;;;11.59;52.52
36192;BME280;22233;42.708;23.360;2023-04-16T05:01:15;94915.22;;;11.79;53.74
36192;BME280;22233;42.708;23.360;2023-04-16T05:03:40;94914.34;;;11.88;53.31
36192;BME280;22233;42.708;23.360;2023-04-16T05:06:06;94904.00;;;11.81;53.17
36192;BME280;22233;42.708;23.360;2023-04-16T05:08:31;94904.25;;;11.88;52.46
36192;BME280;22233;42.708;23.360;2023-04-16T05:10:57;94897.69;;;11.68;54.33
36192;BME280;22233;42.708;23.360;2023-04-16T05:13:22;94901.75;;;11.83;53.62
36192;BME280;22233;42.708;23.360;2023-04-16T05:15:49;94917.50;;;11.77;53.93
36192;BME280;22233;42.708;23.360;2023-04-16T05:18:14;94894.44;;;11.33;54.41
36192;BME280;22233;42.708;23.360;2023-04-16T05:20:40;94907.50;;;11.60;53.78
36192;BME280;22233;42.708;23.360;2023-04-16T05:23:05;94883.38;;;11.38;52.37
36192;BME280;22233;42.708;23.360;2023-04-16T05:25:30;94899.06;;;11.03;52.75
36192;BME280;22233;42.708;23.360;2023-04-16T05:27:56;94910.88;;;10.77;53.30
36192;BME280;22233;42.708;23.360;2023-04-16T05:30:21;94902.38;;;10.49;53.97
36192;BME280;22233;42.708;23.360;2023-04-16T05:32:47;94902.31;;;10.57;54.95
36192;BME280;22233;42.708;23.360;2023-04-16T05:35:12;94912.16;;;9.97;55.13
36192;BME280;22233;42.708;23.360;2023-04-16T05:37:37;94911.16;;;10.46;54.80
36192;BME280;22233;42.708;23.360;2023-04-16T05:40:03;94901.53;;;10.57;55.12
36192;BME280;22233;42.708;23.360;2023-04-16T05:42:28;94906.88;;;10.83;54.05
36192;BME280;22233;42.708;23.360;2023-04-16T05:44:54;94900.97;;;10.81;54.38
36192;BME280;22233;42.708;23.360;2023-04-16T05:47:19;94899.06;;;11.11;54.37
36192;BME280;22233;42.708;23.360;2023-04-16T05:49:45;94910.75;;;11.33;53.18
36192;BME280;22233;42.708;23.360;2023-04-16T05:52:11;94910.16;;;11.48;53.23
36192;BME280;22233;42.708;23.360;2023-04-16T05:54:36;94902.38;;;11.17;54.89
36192;BME280;22233;42.708;23.360;2023-04-16T05:57:02;94906.22;;;11.16;54.33
36192;BME280;22233;42.708;23.360;2023-04-16T05:59:28;94910.56;;;11.38;54.68
36192;BME280;22233;42.708;23.360;2023-04-16T06:01:55;94914.03;;;11.47;55.40
36192;BME280;22233;42.708;23.360;2023-04-16T06:04:20;94907.25;;;11.53;54.65
36192;BME280;22233;42.708;23.360;2023-04-16T06:06:46;94921.09;;;11.90;54.41
36192;BME280;22233;42.708;23.360;2023-04-16T06:09:11;94915.03;;;12.06;54.81
36192;BME280;22233;42.708;23.360;2023-04-16T06:11:36;94892.44;;;12.05;54.70
36192;BME280;22233;42.708;23.360;2023-04-16T06:14:02;94903.16;;;12.23;53.93
36192;BME280;22233;42.708;23.360;2023-04-16T06:16:27;94898.22;;;12.37;54.22
36192;BME280;22233;42.708;23.360;2023-04-16T06:18:53;94915.78;;;12.27;54.09
36192;BME280;22233;42.708;23.360;2023-04-16T06:21:18;94897.88;;;12.38;54.37
36192;BME280;22233;42.708;23.360;2023-04-16T06:23:44;94907.25;;;12.62;53.48
36192;BME280;22233;42.708;23.360;2023-04-16T06:26:09;94907.81;;;11.89;55.64
36192;BME280;22233;42.708;23.360;2023-04-16T06:28:35;94904.31;;;12.22;54.56
36192;BME280;22233;42.708;23.360;2023-04-16T06:31:00;94886.03;;;12.22;55.12
36192;BME280;22233;42.708;23.360;2023-04-16T06:33:26;94900.06;;;12.45;55.43
36192;BME280;22233;42.708;23.360;2023-04-16T06:35:51;94904.81;;;12.03;55.85
36192;BME280;22233;42.708;23.360;2023-04-16T06:38:17;94897.78;;;12.47;54.87
36192;BME280;22233;42.708;23.360;2023-04-16T06:40:42;94896.78;;;12.39;54.89
36192;BME280;22233;42.708;23.360;2023-04-16T06:43:08;94899.84;;;12.17;56.32
36192;BME280;22233;42.708;23.360;2023-04-16T06:45:34;94891.38;;;12.76;54.05
36192;BME280;22233;42.708;23.360;2023-04-16T06:47:59;94888.53;;;12.97;54.27
36192;BME280;22233;42.708;23.360;2023-04-16T06:50:26;94889.09;;;12.91;54.43
36192;BME280;22233;42.708;23.360;2023-04-16T06:52:53;94878.09;;;13.24;54.56
36192;BME280;22233;42.708;23.360;2023-04-16T06:55:19;94906.03;;;13.46;54.43
36192;BME280;22233;42.708;23.360;2023-04-16T06:57:44;94888.84;;;13.57;54.30
36192;BME280;22233;42.708;23.360;2023-04-16T07:00:10;94898.03;;;13.65;54.26
36192;BME280;22233;42.708;23.360;2023-04-16T07:02:36;94885.75;;;13.71;54.22
36192;BME280;22233;42.708;23.360;2023-04-16T07:05:01;94893.50;;;13.97;53.45
36192;BME280;22233;42.708;23.360;2023-04-16T07:07:27;94890.59;;;13.78;54.69
36192;BME280;22233;42.708;23.360;2023-04-16T07:09:52;94891.16;;;13.84;53.77
36192;BME280;22233;42.708;23.360;2023-04-16T07:12:18;94892.44;;;14.02;54.21
36192;BME280;22233;42.708;23.360;2023-04-16T07:14:44;94876.50;;;14.04;54.23
36192;BME280;22233;42.708;23.360;2023-04-16T07:17:10;94891.06;;;14.08;53.73
36192;BME280;22233;42.708;23.360;2023-04-16T07:19:35;94881.84;;;14.13;53.94
36192;BME280;22233;42.708;23.360;2023-04-16T07:22:01;94896.25;;;13.97;54.42
36192;BME280;22233;42.708;23.360;2023-04-16T07:24:26;94893.84;;;14.24;53.55
36192;BME280;22233;42.708;23.360;2023-04-16T07:26:52;94899.81;;;14.14;53.84
36192;BME280;22233;42.708;23.360;2023-04-16T07:29:17;94893.41;;;13.94;54.09
36192;BME280;22233;42.708;23.360;2023-04-16T07:31:43;94886.81;;;14.23;54.45
36192;BME280;22233;42.708;23.360;2023-04-16T07:34:09;94875.72;;;14.32;53.95
36192;BME280;22233;42.708;23.360;2023-04-16T07:36:34;94892.38;;;14.43;54.14
36192;BME280;22233;42.708;23.360;2023-04-16T07:39:00;94867.09;;;14.46;53.84
36192;BME280;22233;42.708;23.360;2023-04-16T07:41:26;94872.72;;;14.81;52.94
36192;BME280;22233;42.708;23.360;2023-04-16T07:43:53;94883.25;;;14.67;53.43
36192;BME280;22233;42.708;23.360;2023-04-16T07:46:19;94880.28;;;14.56;53.09
36192;BME280;22233;42.708;23.360;2023-04-16T07:48:45;94875.69;;;14.60;53.43
36192;BME280;22233;42.708;23.360;2023-04-16T07:51:10;94885.66;;;14.68;53.89
36192;BME280;22233;42.708;23.360;2023-04-16T07:53:36;94889.47;;;14.80;53.36
36192;BME280;22233;42.708;23.360;2023-04-16T07:56:01;94875.69;;;14.92;53.12
36192;BME280;22233;42.708;23.360;2023-04-16T07:58:27;94890.25;;;15.12;52.62
36192;BME280;22233;42.708;23.360;2023-04-16T08:00:52;94882.38;;;15.26;52.13
36192;BME280;22233;42.708;23.360;2023-04-16T08:03:17;94897.03;;;15.18;52.92
36192;BME280;22233;42.708;23.360;2023-04-16T08:05:43;94882.13;;;15.15;52.28
36192;BME280;22233;42.708;23.360;2023-04-16T08:08:08;94888.03;;;15.53;51.92
36192;BME280;22233;42.708;23.360;2023-04-16T08:10:34;94867.97;;;15.65;51.51
36192;BME280;22233;42.708;23.360;2023-04-16T08:13:00;94879.03;;;15.52;51.01
36192;BME280;22233;42.708;23.360;2023-04-16T08:15:26;94861.28;;;15.62;50.91
36192;BME280;22233;42.708;23.360;2023-04-16T08:17:51;94879.09;;;15.91;50.23
36192;BME280;22233;42.708;23.360;2023-04-16T08:20:17;94868.66;;;16.36;49.35
36192;BME280;22233;42.708;23.360;2023-04-16T08:22:44;94878.63;;;16.48;49.93
36192;BME280;22233;42.708;23.360;2023-04-16T08:25:09;94866.94;;;16.51;48.42
36192;BME280;22233;42.708;23.360;2023-04-16T08:27:35;94865.16;;;16.39;48.95
36192;BME280;22233;42.708;23.360;2023-04-16T08:30:00;94868.91;;;16.73;48.83
36192;BME280;22233;42.708;23.360;2023-04-16T08:32:25;94859.38;;;16.87;48.17
36192;BME280;22233;42.708;23.360;2023-04-16T08:34:51;94864.31;;;17.01;47.01
36192;BME280;22233;42.708;23.360;2023-04-16T08:37:16;94849.63;;;16.89;46.99
36192;BME280;22233;42.708;23.360;2023-04-16T08:39:42;94860.09;;;17.33;46.07
36192;BME280;22233;42.708;23.360;2023-04-16T08:42:25;94851.34;;;17.51;45.44
36192;BME280;22233;42.708;23.360;2023-04-16T08:45:06;94846.75;;;17.05;46.25
36192;BME280;22233;42.708;23.360;2023-04-16T08:47:35;94842.22;;;17.16;45.57
36192;BME280;22233;42.708;23.360;2023-04-16T08:50:04;94836.13;;;17.04;45.89
36192;BME280;22233;42.708;23.360;2023-04-16T08:52:31;94830.84;;;17.45;45.39
36192;BME280;22233;42.708;23.360;2023-04-16T08:55:05;94840.19;;;17.70;46.21
36192;BME280;22233;42.708;23.360;2023-04-16T08:57:53;94850.50;;;17.77;45.60
36192;BME280;22233;42.708;23.360;2023-04-16T09:00:22;94827.84;;;17.84;45.19
36192;BME280;22233;42.708;23.360;2023-04-16T09:02:48;94838.06;;;18.17;45.10
36192;BME280;22233;42.708;23.360;2023-04-16T09:05:15;94836.63;;;18.30;43.88
36192;BME280;22233;42.708;23.360;2023-04-16T09:07:45;94833.91;;;18.34;43.54
36192;BME280;22233;42.708;23.360;2023-04-16T09:10:13;94822.81;;;18.23;43.30
36192;BME280;22233;42.708;23.360;2023-04-16T09:12:40;94824.63;;;18.46;43.74
36192;BME280;22233;42.708;23.360;2023-04-16T09:15:08;94815.91;;;18.40;43.90
36192;BME280;22233;42.708;23.360;2023-04-16T09:17:34;94823.41;;;18.06;43.43
36192;BME280;22233;42.708;23.360;2023-04-16T09:19:59;94821.50;;;18.10;43.86
36192;BME280;22233;42.708;23.360;2023-04-16T09:22:25;94820.25;;;18.41;43.26
36192;BME280;22233;42.708;23.360;2023-04-16T09:24:50;94818.81;;;18.54;44.37
36192;BME280;22233;42.708;23.360;2023-04-16T09:27:16;94831.31;;;18.89;44.32
36192;BME280;22233;42.708;23.360;2023-04-16T09:29:41;94816.34;;;18.87;42.60
36192;BME280;22233;42.708;23.360;2023-04-16T09:32:09;94827.06;;;18.99;43.69
36192;BME280;22233;42.708;23.360;2023-04-16T09:34:53;94823.13;;;18.96;43.39
36192;BME280;22233;42.708;23.360;2023-04-16T09:37:18;94827.47;;;18.98;42.11
36192;BME280;22233;42.708;23.360;2023-04-16T09:40:01;94820.84;;;19.09;42.52
36192;BME280;22233;42.708;23.360;2023-04-16T09:42:31;94823.69;;;17.67;44.59
36192;BME280;22233;42.708;23.360;2023-04-16T09:44:57;94811.34;;;17.53;45.37
36192;BME280;22233;42.708;23.360;2023-04-16T09:47:25;94809.22;;;17.70;44.92
36192;BME280;22233;42.708;23.360;2023-04-16T09:49:51;94813.22;;;17.76;45.66
36192;BME280;22233;42.708;23.360;2023-04-16T09:52:18;94813.63;;;18.46;44.38
36192;BME280;22233;42.708;23.360;2023-04-16T09:54:52;94806.94;;;18.88;43.97
36192;BME280;22233;42.708;23.360;2023-04-16T09:57:24;94800.44;;;19.10;43.18
36192;BME280;22233;42.708;23.360;2023-04-16T10:00:09;94804.34;;;19.09;42.99
36192;BME280;22233;42.708;23.360;2023-04-16T10:02:35;94800.78;;;19.05;42.36
36192;BME280;22233;42.708;23.360;2023-04-16T10:05:04;94794.13;;;19.13;42.40
36192;BME280;22233;42.708;23.360;2023-04-16T10:07:34;94794.22;;;19.24;41.14
36192;BME280;22233;42.708;23.360;2023-04-16T10:10:01;94790.66;;;19.20;41.60
36192;BME280;22233;42.708;23.360;2023-04-16T10:12:27;94788.69;;;19.21;41.37
36192;BME280;22233;42.708;23.360;2023-04-16T10:14:53;94783.13;;;19.13;40.12
36192;BME280;22233;42.708;23.360;2023-04-16T10:17:20;94786.75;;;19.25;40.17
36192;BME280;22233;42.708;23.360;2023-04-16T10:19:45;94791.22;;;19.51;39.66
36192;BME280;22233;42.708;23.360;2023-04-16T10:22:11;94784.56;;;19.52;39.38
36192;BME280;22233;42.708;23.360;2023-04-16T10:24:38;94794.72;;;19.41;39.71
36192;BME280;22233;42.708;23.360;2023-04-16T10:27:05;94776.66;;;19.47;37.99
36192;BME280;22233;42.708;23.360;2023-04-16T10:29:30;94761.31;;;19.49;38.60
36192;BME280;22233;42.708;23.360;2023-04-16T10:31:57;94765.34;;;19.70;38.02
36192;BME280;22233;42.708;23.360;2023-04-16T10:34:24;94774.09;;;19.86;39.56
36192;BME280;22233;42.708;23.360;2023-04-16T10:36:51;94771.31;;;19.06;41.29
36192;BME280;22233;42.708;23.360;2023-04-16T10:39:21;94777.84;;;19.53;41.53
36192;BME280;22233;42.708;23.360;2023-04-16T10:41:49;94764.25;;;19.78;40.76
36192;BME280;22233;42.708;23.360;2023-04-16T10:44:17;94767.81;;;19.93;40.06
36192;BME280;22233;42.708;23.360;2023-04-16T10:46:43;94775.00;;;20.26;39.82
36192;BME280;22233;42.708;23.360;2023-04-16T10:49:16;94771.16;;;20.63;38.20
36192;BME280;22233;42.708;23.360;2023-04-16T10:52:07;94772.34;;;20.77;37.87
36192;BME280;22233;42.708;23.360;2023-04-16T10:54:37;94768.00;;;20.97;36.34
36192;BME280;22233;42.708;23.360;2023-04-16T10:57:05;94765.94;;;20.22;36.96
36192;BME280;22233;42.708;23.360;2023-04-16T10:59:34;94770.75;;;20.90;36.86
36192;BME280;22233;42.708;23.360;2023-04-16T11:02:06;94757.28;;;21.28;36.57
36192;BME280;22233;42.708;23.360;2023-04-16T11:09:55;94748.66;;;20.75;37.24
36192;BME280;22233;42.708;23.360;2023-04-16T11:15:03;94735.66;;;20.72;37.13
36192;BME280;22233;42.708;23.360;2023-04-16T11:17:33;94738.41;;;20.62;38.01
36192;BME280;22233;42.708;23.360;2023-04-16T11:20:01;94736.81;;;21.00;37.25
36192;BME280;22233;42.708;23.360;2023-04-16T11:22:26;94726.16;;;21.13;37.25
36192;BME280;22233;42.708;23.360;2023-04-16T11:24:55;94739.56;;;21.04;37.31
36192;BME280;22233;42.708;23.360;2023-04-16T11:27:24;94723.81;;;20.90;37.09
36192;BME280;22233;42.708;23.360;2023-04-16T11:30:04;94717.91;;;20.88;37.59
36192;BME280;22233;42.708;23.360;2023-04-16T11:32:34;94723.00;;;21.07;37.55
36192;BME280;22233;42.708;23.360;2023-04-16T11:35:01;94719.03;;;21.19;37.64
36192;BME280;22233;42.708;23.360;2023-04-16T11:37:36;94713.13;;;21.13;38.06
36192;BME280;22233;42.708;23.360;2023-04-16T11:40:05;94704.88;;;20.92;37.55
36192;BME280;22233;42.708;23.360;2023-04-16T11:42:33;94715.94;;;20.74;37.91
36192;BME280;22233;42.708;23.360;2023-04-16T11:45:01;94709.66;;;20.81;37.88
36192;BME280;22233;42.708;23.360;2023-04-16T11:47:29;94699.38;;;20.81;37.79
36192;BME280;22233;42.708;23.360;2023-04-16T11:49:55;94696.63;;;20.81;37.80
36192;BME280;22233;42.708;23.360;2023-04-16T11:52:29;94687.94;;;20.75;37.78
36192;BME280;22233;42.708;23.360;2023-04-16T11:54:56;94697.00;;;20.51;38.38
36192;BME280;22233;42.708;23.360;2023-04-16T11:57:29;94701.38;;;20.73;37.63
36192;BME280;22233;42.708;23.360;2023-04-16T11:59:59;94684.41;;;20.75;37.87
36192;BME280;22233;42.708;23.360;2023-04-16T12:02:44;94679.59;;;21.11;37.10
36192;BME280;22233;42.708;23.360;2023-04-16T12:05:30;94672.81;;;21.30;37.39
36192;BME280;22233;42.708;23.360;2023-04-16T12:07:57;94662.22;;;21.25;36.51
36192;BME280;22233;42.708;23.360;2023-04-16T12:10:23;94662.97;;;21.29;37.09
36192;BME280;22233;42.708;23.360;2023-04-16T12:12:48;94659.44;;;21.22;37.34
36192;BME280;22233;42.708;23.360;2023-04-16T12:15:14;94664.88;;;21.54;36.54
36192;BME280;22233;42.708;23.360;2023-04-16T12:17:39;94664.44;;;21.63;36.68
36192;BME280;22233;42.708;23.360;2023-04-16T12:20:09;94652.97;;;21.68;36.89
36192;BME280;22233;42.708;23.360;2023-04-16T12:22:37;94639.63;;;21.52;36.17
36192;BME280;22233;42.708;23.360;2023-04-16T12:25:04;94655.06;;;21.46;37.61
36192;BME280;22233;42.708;23.360;2023-04-16T12:27:41;94656.13;;;21.63;35.83
36192;BME280;22233;42.708;23.360;2023-04-16T12:30:08;94648.63;;;21.67;35.20
36192;BME280;22233;42.708;23.360;2023-04-16T12:32:33;94647.16;;;21.44;35.55
36192;BME280;22233;42.708;23.360;2023-04-16T12:34:59;94638.69;;;21.77;36.92
36192;BME280;22233;42.708;23.360;2023-04-16T12:37:24;94625.78;;;21.59;36.12
36192;BME280;22233;42.708;23.360;2023-04-16T12:39:50;94629.41;;;21.45;36.22
36192;BME280;22233;42.708;23.360;2023-04-16T12:42:15;94628.78;;;20.91;39.71
36192;BME280;22233;42.708;23.360;2023-04-16T12:44:41;94631.56;;;20.84;40.27
36192;BME280;22233;42.708;23.360;2023-04-16T12:47:06;94626.06;;;20.69;38.54
36192;BME280;22233;42.708;23.360;2023-04-16T12:49:32;94631.59;;;20.73;37.68
36192;BME280;22233;42.708;23.360;2023-04-16T12:51:57;94642.25;;;20.71;39.38
36192;BME280;22233;42.708;23.360;2023-04-16T12:54:23;94630.41;;;20.67;40.58
36192;BME280;22233;42.708;23.360;2023-04-16T12:56:48;94620.97;;;20.43;39.34